Weather History for Galax, VA

Change the Weather History Date:

Friday, November 8, 2013

  Actual Average (KBLF) Record (KBLF)
Temperature  
Mean Temperature 40 °F 50 °F  
Max Temperature 46 °F 59 °F 74 °F (1994)
Min Temperature 33 °F 41 °F 15 °F (1971)
Degree Days  
Heating Degree Days 26 15  
Month to date heating degree days 113  
Since 1 July heating degree days 477  
Cooling Degree Days 0 0  
Month to date cooling degree days 0  
Year to date cooling degree days 851  
Moisture  
Dew Point 24 °F    
Average Humidity 53    
Maximum Humidity 70    
Minimum Humidity 34    
Precipitation  
Precipitation 0.00 in 0.08 in 1.50 in (1996)
Month to date precipitation 0.70  
Year to date precipitation 34.73  
Snow  
Snow 0.00 in - - ()
Month to date snowfall  
Since 1 July snowfall  
Since 1 September snowfall  
Snow Depth -    
Sea Level Pressure  
Sea Level Pressure 30.24 in    
Wind  
Wind Speed 12 mph (NW)    
Max Wind Speed 22 mph    
Max Gust Speed 30 mph    
Visibility 10 miles    
Events      
T = Trace of Precipitation, MM = Missing Value Source: NWS Daily Summary

Daily Weather History Graph

Daily Weather History Graph

Search for Another Location

Airport:

Trip Planner

Search our weather history database for the weather conditions in past years. The results will help you decide how hot, cold, wet, or windy it might be!

Date:

Astronomy

Nov. 08, 2013 Rise Set
Actual Time 6:54 AM EST 5:19 PM EST
Civil Twilight 6:27 AM EST 5:46 PM EST
Nautical Twilight 5:56 AM EST 6:17 PM EST
Astronomical Twilight 5:25 AM EST 6:47 PM EST
Moon 11:48 AM EST (11/8) 10:38 PM EST (11/8)
Length of Visible Light 11h 19m
Length of Day
10h 24m
Waxing Crescent, 33% of the Moon is Illuminated
Nov 8
Waxing Crescent
Nov 10
First Quarter
Nov 17
Full
Nov 25
Last Quarter
Dec 2
New

Hourly Weather History & Observations

Time (EST) Temp. Windchill Dew Point Humidity Pressure Visibility Wind Dir Wind Speed Gust Speed Precip Events Conditions
12:15 AM 39.2 °F 31.2 °F 28.4 °F 65% 30.14 in 10.0 mi NW 13.8 mph 21.9 mph N/A   Clear
12:35 AM 39.2 °F 31.6 °F 28.4 °F 65% 30.14 in 10.0 mi NW 12.7 mph 19.6 mph N/A   Clear
12:55 AM 39.2 °F 30.8 °F 28.4 °F 65% 30.15 in 10.0 mi NW 15.0 mph 24.2 mph N/A   Clear
1:15 AM 37.4 °F 28.5 °F 26.6 °F 65% 30.15 in 10.0 mi NW 15.0 mph 21.9 mph N/A   Clear
1:35 AM 37.4 °F 28.2 °F 26.6 °F 65% 30.15 in 10.0 mi NW 16.1 mph 21.9 mph N/A   Clear
1:55 AM 37.4 °F 28.5 °F 26.6 °F 65% 30.16 in 10.0 mi NW 15.0 mph 19.6 mph N/A   Clear
2:15 AM 37.4 °F 28.2 °F 26.6 °F 65% 30.17 in 10.0 mi NW 16.1 mph 23.0 mph N/A   Clear
2:35 AM 37.4 °F 29.3 °F 26.6 °F 65% 30.17 in 10.0 mi NW 12.7 mph 21.9 mph N/A   Clear
2:55 AM 37.4 °F 27.8 °F 26.6 °F 65% 30.17 in 10.0 mi NW 17.3 mph 23.0 mph N/A   Clear
3:15 AM 37.4 °F 27.5 °F 26.6 °F 65% 30.17 in 10.0 mi WNW 18.4 mph 24.2 mph N/A   Clear
3:35 AM 37.4 °F 28.5 °F 26.6 °F 65% 30.17 in 10.0 mi NW 15.0 mph 23.0 mph N/A   Clear
3:55 AM 37.4 °F 28.2 °F 26.6 °F 65% 30.18 in 10.0 mi NW 16.1 mph 19.6 mph N/A   Clear
4:15 AM 37.4 °F 29.3 °F 24.8 °F 60% 30.18 in 10.0 mi NW 12.7 mph 17.3 mph N/A   Clear
4:35 AM 37.4 °F 30.8 °F 24.8 °F 60% 30.18 in 10.0 mi WNW 9.2 mph - N/A   Clear
4:55 AM 37.4 °F 32.1 °F 24.8 °F 60% 30.18 in 10.0 mi WNW 6.9 mph - N/A   Clear
5:15 AM 35.6 °F 29.2 °F 24.8 °F 65% 30.19 in 10.0 mi WNW 8.1 mph - N/A   Clear
5:35 AM 35.6 °F 28.0 °F 24.8 °F 65% 30.19 in 10.0 mi WNW 10.4 mph - N/A   Clear
5:55 AM 35.6 °F 28.6 °F 24.8 °F 65% 30.19 in 10.0 mi WNW 9.2 mph - N/A   Clear
6:15 AM 35.6 °F 29.2 °F 24.8 °F 65% 30.19 in 10.0 mi WNW 8.1 mph - N/A   Clear
6:35 AM 35.6 °F 28.6 °F 26.6 °F 70% 30.20 in 10.0 mi WNW 9.2 mph - N/A   Clear
6:55 AM 35.6 °F 29.2 °F 26.6 °F 70% 30.20 in 10.0 mi WNW 8.1 mph - N/A   Clear
7:15 AM 35.6 °F 29.2 °F 26.6 °F 70% 30.21 in 10.0 mi WNW 8.1 mph - N/A   Clear
7:35 AM 35.6 °F 28.6 °F 26.6 °F 70% 30.22 in 10.0 mi WNW 9.2 mph - N/A   Clear
7:55 AM 37.4 °F 30.8 °F 26.6 °F 65% 30.23 in 10.0 mi WNW 9.2 mph - N/A   Clear
8:15 AM 37.4 °F 30.3 °F 26.6 °F 65% 30.23 in 10.0 mi WNW 10.4 mph - N/A   Clear
8:35 AM 39.2 °F 31.2 °F 26.6 °F 61% 30.24 in 10.0 mi WNW 13.8 mph 17.3 mph N/A   Clear
8:55 AM 39.2 °F 30.5 °F 24.8 °F 56% 30.25 in 10.0 mi NW 16.1 mph 21.9 mph N/A   Clear
9:15 AM 39.2 °F 30.8 °F 24.8 °F 56% 30.25 in 10.0 mi WNW 15.0 mph 19.6 mph N/A   Clear
9:35 AM 39.2 °F 29.6 °F 24.8 °F 56% 30.26 in 10.0 mi WNW 19.6 mph 27.6 mph N/A   Clear
9:55 AM 39.2 °F 29.0 °F 24.8 °F 56% 30.26 in 10.0 mi NNW 21.9 mph 29.9 mph N/A   Clear
10:15 AM 41.0 °F 31.6 °F 24.8 °F 53% 30.27 in 10.0 mi WNW 20.7 mph 24.2 mph N/A   Clear
10:35 AM 39.2 °F 31.2 °F 24.8 °F 56% 30.28 in 10.0 mi NW 13.8 mph 26.5 mph N/A   Clear
10:55 AM 41.0 °F 33.9 °F 24.8 °F 53% 30.28 in 10.0 mi NW 12.7 mph 26.5 mph N/A   Clear
11:15 AM 42.8 °F 34.8 °F 24.8 °F 49% 30.29 in 10.0 mi NNW 17.3 mph 25.3 mph N/A   Clear
11:35 AM 42.8 °F 34.0 °F 24.8 °F 49% 30.28 in 10.0 mi NNW 20.7 mph 25.3 mph N/A   Clear
11:55 AM 42.8 °F 35.4 °F 24.8 °F 49% 30.27 in 10.0 mi NW 15.0 mph 25.3 mph N/A   Clear
12:15 PM 42.8 °F 36.6 °F 24.8 °F 49% 30.26 in 10.0 mi NW 11.5 mph 26.5 mph N/A   Clear
12:35 PM 44.6 °F 37.4 °F 23.0 °F 43% 30.26 in 10.0 mi NW 16.1 mph 26.5 mph N/A   Clear
12:55 PM 44.6 °F 37.2 °F 21.2 °F 39% 30.26 in 10.0 mi WNW 17.3 mph 25.3 mph N/A   Clear
1:15 PM 44.6 °F 37.4 °F 21.2 °F 39% 30.25 in 10.0 mi NW 16.1 mph 24.2 mph N/A   Clear
1:35 PM 44.6 °F 37.2 °F 19.4 °F 37% 30.25 in 10.0 mi NW 17.3 mph 28.8 mph N/A   Clear
1:55 PM 46.4 °F 40.1 °F 21.2 °F 37% 30.24 in 10.0 mi NW 15.0 mph 23.0 mph N/A   Clear
2:15 PM 46.4 °F 39.8 °F 21.2 °F 37% 30.24 in 10.0 mi WNW 16.1 mph 23.0 mph N/A   Clear
2:35 PM 46.4 °F 39.8 °F 21.2 °F 37% 30.24 in 10.0 mi NW 16.1 mph 21.9 mph N/A   Clear
2:55 PM 46.4 °F 41.1 °F 19.4 °F 34% 30.25 in 10.0 mi NNW 11.5 mph 19.6 mph N/A   Clear
3:15 PM 46.4 °F 40.7 °F 21.2 °F 37% 30.25 in 10.0 mi NNW 12.7 mph - N/A   Clear
3:35 PM 46.4 °F 41.5 °F 21.2 °F 37% 30.25 in 10.0 mi NW 10.4 mph 17.3 mph N/A   Clear
3:55 PM 46.4 °F 40.7 °F 21.2 °F 37% 30.26 in 10.0 mi NW 12.7 mph - N/A   Clear
4:15 PM 46.4 °F 41.1 °F 19.4 °F 34% 30.26 in 10.0 mi WNW 11.5 mph 16.1 mph N/A   Clear
4:35 PM 46.4 °F 40.7 °F 21.2 °F 37% 30.25 in 10.0 mi NW 12.7 mph - N/A   Clear
4:55 PM 44.6 °F 41.4 °F 21.2 °F 39% 30.26 in 10.0 mi NNW 5.8 mph - N/A   Clear
5:15 PM 44.6 °F 38.8 °F 21.2 °F 39% 30.26 in 10.0 mi NW 11.5 mph - N/A   Clear
5:35 PM 44.6 °F 41.4 °F 21.2 °F 39% 30.27 in 10.0 mi NW 5.8 mph - N/A   Clear
5:55 PM 42.8 °F 38.6 °F 21.2 °F 42% 30.27 in 10.0 mi NW 6.9 mph - N/A   Clear
6:15 PM 42.8 °F 38.0 °F 21.2 °F 42% 30.27 in 10.0 mi NW 8.1 mph - N/A   Clear
6:35 PM 42.8 °F 38.6 °F 21.2 °F 42% 30.28 in 10.0 mi WNW 6.9 mph - N/A   Clear
6:55 PM 42.8 °F 38.0 °F 21.2 °F 42% 30.29 in 10.0 mi NW 8.1 mph - N/A   Clear
7:15 PM 42.8 °F 40.1 °F 21.2 °F 42% 30.29 in 10.0 mi NW 4.6 mph - N/A   Clear
7:35 PM 41.0 °F 36.4 °F 21.2 °F 45% 30.28 in 10.0 mi NW 6.9 mph - N/A   Clear
7:55 PM 41.0 °F 39.0 °F 21.2 °F 45% 30.29 in 10.0 mi WNW 3.5 mph - N/A   Clear
8:15 PM 39.2 °F 34.2 °F 21.2 °F 49% 30.29 in 10.0 mi WNW 6.9 mph - N/A   Clear
8:35 PM 41.0 °F 37.1 °F 21.2 °F 45% 30.29 in 10.0 mi NW 5.8 mph - N/A   Clear
8:55 PM 39.2 °F 35.9 °F 21.2 °F 49% 30.30 in 10.0 mi WNW 4.6 mph - N/A   Clear
9:15 PM 37.4 °F 34.9 °F 21.2 °F 52% 30.31 in 10.0 mi WSW 3.5 mph - N/A   Clear
9:35 PM 39.2 °F 37.0 °F 21.2 °F 49% 30.30 in 10.0 mi WSW 3.5 mph - N/A   Clear
9:55 PM 39.2 °F 37.0 °F 21.2 °F 49% 30.31 in 10.0 mi WNW 3.5 mph - N/A   Clear
10:15 PM 35.6 °F 32.8 °F 23.0 °F 60% 30.31 in 10.0 mi SE 3.5 mph - N/A   Clear
10:35 PM 37.4 °F 34.9 °F 21.2 °F 52% 30.31 in 10.0 mi SSW 3.5 mph - N/A   Clear
10:55 PM 37.4 °F - 21.2 °F 52% 30.30 in 10.0 mi Calm Calm - N/A   Clear
11:15 PM 33.8 °F 30.8 °F 23.0 °F 65% 30.31 in 10.0 mi SSE 3.5 mph - N/A   Clear
11:35 PM 37.4 °F - 21.2 °F 52% 30.30 in 10.0 mi Calm Calm - N/A   Clear
11:55 PM 37.4 °F - 21.2 °F 52% 30.30 in 10.0 mi Calm Calm - N/A   Clear